createdAt,value
2022-09-23T00:01:17.534Z,2.13
2022-09-23T00:03:46.753Z,2.38
2022-09-23T00:06:16.136Z,1.92
2022-09-23T00:08:43.508Z,2.20
2022-09-23T00:11:12.497Z,2.63
2022-09-23T00:13:42.006Z,1.90
2022-09-23T00:16:12.488Z,2.17
2022-09-23T00:18:39.931Z,2.42
2022-09-23T00:21:10.392Z,2.10
2022-09-23T00:23:38.164Z,2.45
2022-09-23T00:26:08.193Z,2.33
2022-09-23T00:28:35.368Z,2.15
2022-09-23T00:31:03.046Z,2.03
2022-09-23T00:33:30.322Z,2.20
2022-09-23T00:35:59.468Z,2.10
2022-09-23T00:38:28.851Z,2.60
2022-09-23T00:40:56.570Z,2.03
2022-09-23T00:43:37.551Z,2.15
2022-09-23T00:46:07.706Z,2.30
2022-09-23T00:48:37.039Z,2.17
2022-09-23T00:51:06.809Z,2.47
2022-09-23T00:53:35.827Z,2.20
2022-09-23T00:56:05.955Z,2.03
2022-09-23T00:58:35.721Z,2.38
2022-09-23T01:01:03.503Z,2.13
2022-09-23T01:03:30.896Z,2.25
2022-09-23T01:05:58.436Z,2.33
2022-09-23T01:08:27.248Z,2.10
2022-09-23T01:11:07.249Z,2.13
2022-09-23T01:13:43.745Z,2.33
2022-09-23T01:16:18.296Z,2.08
2022-09-23T01:18:51.620Z,2.10
2022-09-23T01:21:33.883Z,2.10
2022-09-23T01:24:24.656Z,1.90
2022-09-23T01:27:23.885Z,2.20
2022-09-23T01:30:07.433Z,1.77
2022-09-23T01:33:01.925Z,2.30
2022-09-23T01:35:40.351Z,2.08
2022-09-23T01:38:17.503Z,2.45
2022-09-23T01:40:50.928Z,1.85
2022-09-23T01:43:24.181Z,1.85
2022-09-23T01:45:57.207Z,2.00
2022-09-23T01:48:31.602Z,2.03
2022-09-23T01:51:04.752Z,1.85
2022-09-23T01:53:38.999Z,1.98
2022-09-23T01:56:11.576Z,2.10
2022-09-23T01:58:45.118Z,1.80
2022-09-23T02:01:18.995Z,1.85
2022-09-23T02:03:52.740Z,1.95
2022-09-23T02:06:23.148Z,1.90
2022-09-23T02:08:55.380Z,2.20
2022-09-23T02:11:22.998Z,2.20
2022-09-23T02:13:54.137Z,2.30
2022-09-23T02:16:28.296Z,1.98
2022-09-23T02:19:03.081Z,2.30
2022-09-23T02:21:35.236Z,1.80
2022-09-23T02:24:09.811Z,1.80
2022-09-23T02:26:45.727Z,1.70
2022-09-23T02:29:20.396Z,2.28
2022-09-23T02:31:56.405Z,2.17
2022-09-23T02:34:35.017Z,2.08
2022-09-23T02:37:11.466Z,1.70
2022-09-23T02:39:51.805Z,1.77
2022-09-23T02:42:23.804Z,1.60
2022-09-23T02:44:51.148Z,1.90
2022-09-23T02:47:22.688Z,1.75
2022-09-23T02:49:51.308Z,1.85
2022-09-23T02:52:18.408Z,1.90
2022-09-23T02:54:45.501Z,1.85
2022-09-23T02:57:12.625Z,2.25
2022-09-23T02:59:40.632Z,1.90
2022-09-23T03:02:27.070Z,1.83
2022-09-23T03:05:07.041Z,1.75
2022-09-23T03:07:47.651Z,1.70
2022-09-23T03:10:21.199Z,2.10
2022-09-23T03:12:58.656Z,1.83
2022-09-23T03:15:34.960Z,1.80
2022-09-23T03:18:11.125Z,1.60
2022-09-23T03:20:45.812Z,1.52
2022-09-23T03:23:14.942Z,1.80
2022-09-23T03:25:46.637Z,1.80
2022-09-23T03:28:16.323Z,1.63
2022-09-23T03:30:44.348Z,1.80
2022-09-23T03:33:13.841Z,1.90
2022-09-23T03:35:48.813Z,1.77
2022-09-23T03:38:16.925Z,1.80
2022-09-23T03:40:46.254Z,1.95
2022-09-23T03:43:14.110Z,1.58
2022-09-23T03:45:41.438Z,1.60
2022-09-23T03:48:08.952Z,1.60
2022-09-23T03:50:36.075Z,1.90
2022-09-23T03:53:04.495Z,1.80
2022-09-23T03:55:31.575Z,1.90
2022-09-23T03:57:58.679Z,2.00
2022-09-23T04:00:26.260Z,1.77
2022-09-23T04:02:53.390Z,1.80
2022-09-23T04:05:20.496Z,1.63
2022-09-23T04:07:47.686Z,2.15
2022-09-23T04:10:16.216Z,1.60
2022-09-23T04:12:43.733Z,1.80
2022-09-23T04:15:11.112Z,1.85
2022-09-23T04:17:38.216Z,1.65
2022-09-23T04:20:06.598Z,1.60
2022-09-23T04:22:34.091Z,1.80
2022-09-23T04:25:01.171Z,1.80
2022-09-23T04:27:31.296Z,1.75
2022-09-23T04:30:01.525Z,1.67
2022-09-23T04:32:28.593Z,1.80
2022-09-23T04:34:55.684Z,1.73
2022-09-23T04:37:22.758Z,1.95
2022-09-23T04:39:49.840Z,2.17
2022-09-23T04:42:16.988Z,2.13
2022-09-23T04:44:45.395Z,1.98
2022-09-23T04:47:12.655Z,2.13
2022-09-23T04:49:40.662Z,1.92
2022-09-23T04:52:07.767Z,2.03
2022-09-23T04:54:34.832Z,1.98
2022-09-23T04:57:01.945Z,2.00
2022-09-23T04:59:29.027Z,1.90
2022-09-23T05:01:57.528Z,2.22
2022-09-23T05:04:24.681Z,1.60
2022-09-23T05:06:51.804Z,1.75
2022-09-23T05:09:19.249Z,1.90
2022-09-23T05:11:46.593Z,1.83
2022-09-23T05:14:13.893Z,1.90
2022-09-23T05:16:41.062Z,1.60
2022-09-23T05:19:09.625Z,2.50
2022-09-23T05:21:36.740Z,2.20
2022-09-23T05:24:04.176Z,1.80
2022-09-23T05:26:32.933Z,2.20
2022-09-23T05:29:00.366Z,1.80
2022-09-23T05:31:29.446Z,1.85
2022-09-23T05:33:58.065Z,2.00
2022-09-23T05:36:28.067Z,1.80
2022-09-23T05:38:55.897Z,1.70
2022-09-23T05:41:23.699Z,1.90
2022-09-23T05:43:50.955Z,2.35
2022-09-23T05:46:20.087Z,1.90
2022-09-23T05:48:47.269Z,1.85
2022-09-23T05:51:15.918Z,2.10
2022-09-23T05:53:44.824Z,1.88
2022-09-23T05:56:12.502Z,1.92
2022-09-23T05:58:40.151Z,1.70
2022-09-23T06:01:11.424Z,1.75
2022-09-23T06:03:38.815Z,1.90
2022-09-23T06:06:06.814Z,1.77
2022-09-23T06:08:34.130Z,1.90
2022-09-23T06:11:06.620Z,2.20
2022-09-23T06:13:34.576Z,1.80
2022-09-23T06:16:02.363Z,1.80
2022-09-23T06:18:29.706Z,1.77
2022-09-23T06:21:00.445Z,1.75
2022-09-23T06:23:27.581Z,1.92
2022-09-23T06:25:59.998Z,1.90
2022-09-23T06:28:30.358Z,1.60
2022-09-23T06:30:58.058Z,2.13
2022-09-23T06:33:35.269Z,1.77
2022-09-23T06:36:05.811Z,1.70
2022-09-23T06:38:33.179Z,1.80
2022-09-23T06:41:00.951Z,1.70
2022-09-23T06:43:28.040Z,1.77
2022-09-23T06:45:58.004Z,1.65
2022-09-23T06:48:25.719Z,1.80
2022-09-23T06:50:53.411Z,1.92
2022-09-23T06:53:21.844Z,2.22
2022-09-23T06:55:49.036Z,1.88
2022-09-23T06:58:16.143Z,1.80
2022-09-23T07:00:43.223Z,1.85
2022-09-23T07:03:12.017Z,1.67
2022-09-23T07:05:39.105Z,1.90
2022-09-23T07:08:07.516Z,1.80
2022-09-23T07:10:34.728Z,1.90
2022-09-23T07:13:01.940Z,1.90
2022-09-23T07:15:29.270Z,2.05
2022-09-23T07:17:56.359Z,1.88
2022-09-23T07:20:24.810Z,1.80
2022-09-23T07:22:52.494Z,1.77
2022-09-23T07:25:19.678Z,1.88
2022-09-23T07:27:46.787Z,1.90
2022-09-23T07:30:23.296Z,1.85
2022-09-23T07:32:52.054Z,1.63
2022-09-23T07:35:19.716Z,1.70
2022-09-23T07:37:50.168Z,1.70
2022-09-23T07:40:17.592Z,1.80
2022-09-23T07:42:44.711Z,2.10
2022-09-23T07:45:11.791Z,1.95
2022-09-23T07:47:38.879Z,1.75
2022-09-23T07:50:07.653Z,1.70
2022-09-23T07:52:35.741Z,2.40
2022-09-23T07:55:05.536Z,2.10
2022-09-23T07:57:33.728Z,1.77
2022-09-23T08:00:00.887Z,1.70
2022-09-23T08:02:28.089Z,1.88
2022-09-23T08:04:55.235Z,1.70
2022-09-23T08:07:22.316Z,1.80
2022-09-23T08:09:49.403Z,1.83
2022-09-23T08:12:18.988Z,2.05
2022-09-23T08:14:46.072Z,1.90
2022-09-23T08:17:13.181Z,1.60
2022-09-23T08:19:40.299Z,1.90
2022-09-23T08:22:07.760Z,1.70
2022-09-23T08:24:34.834Z,1.60
2022-09-23T08:27:02.099Z,1.70
2022-09-23T08:29:30.532Z,1.70
2022-09-23T08:31:57.608Z,1.80
2022-09-23T08:34:27.504Z,1.67
2022-09-23T08:36:54.603Z,1.90
2022-09-23T08:39:21.708Z,1.80
2022-09-23T08:42:03.190Z,1.67
2022-09-23T08:44:43.252Z,1.65
2022-09-23T08:47:19.120Z,1.65
2022-09-23T08:49:59.197Z,1.65
2022-09-23T08:52:32.900Z,1.75
2022-09-23T08:55:01.127Z,1.70
2022-09-23T08:57:39.087Z,1.52
2022-09-23T09:00:16.348Z,1.50
2022-09-23T09:02:43.602Z,1.52
2022-09-23T09:05:12.703Z,1.60
2022-09-23T09:07:41.280Z,1.58
2022-09-23T09:10:15.644Z,1.50
2022-09-23T09:12:46.149Z,1.50
2022-09-23T09:15:16.794Z,1.50
2022-09-23T09:17:55.984Z,1.42
2022-09-23T09:20:29.799Z,1.70
2022-09-23T09:22:58.099Z,1.70
2022-09-23T09:25:37.519Z,1.58
2022-09-23T09:28:15.153Z,1.60
2022-09-23T09:30:48.354Z,1.70
2022-09-23T09:33:18.989Z,1.40
2022-09-23T09:36:01.064Z,1.50
2022-09-23T09:38:28.323Z,1.80
2022-09-23T09:41:05.454Z,1.60
2022-09-23T09:43:32.659Z,1.75
2022-09-23T09:46:16.401Z,1.48
2022-09-23T09:48:52.215Z,1.60
2022-09-23T09:51:21.084Z,1.67
2022-09-23T09:53:48.155Z,1.70
2022-09-23T09:56:16.109Z,1.33
2022-09-23T09:58:47.753Z,1.65
2022-09-23T10:01:20.863Z,1.60
2022-09-23T10:03:49.477Z,1.25
2022-09-23T10:06:20.211Z,1.48
2022-09-23T10:09:04.015Z,1.40
2022-09-23T10:11:32.406Z,1.70
2022-09-23T10:14:11.057Z,1.40
2022-09-23T10:16:40.366Z,1.50
2022-09-23T10:19:17.119Z,1.50
2022-09-23T10:21:50.799Z,1.60
2022-09-23T10:24:22.375Z,1.40
2022-09-23T10:26:53.549Z,1.40
2022-09-23T10:29:24.038Z,1.42
2022-09-23T10:32:17.564Z,1.63
2022-09-23T10:34:46.127Z,1.40
2022-09-23T10:37:17.409Z,1.73
2022-09-23T10:39:44.593Z,1.52
2022-09-23T10:42:21.302Z,1.58
2022-09-23T10:45:01.304Z,1.58
2022-09-23T10:47:39.250Z,1.35
2022-09-23T10:50:24.149Z,1.48
2022-09-23T10:53:04.722Z,1.40
2022-09-23T10:55:41.066Z,1.30
2022-09-23T10:58:26.738Z,1.50
2022-09-23T11:01:06.530Z,1.30
2022-09-23T11:03:54.606Z,1.65
2022-09-23T11:06:29.700Z,1.50
2022-09-23T11:09:14.524Z,1.25
2022-09-23T11:11:54.729Z,1.50
2022-09-23T11:14:36.540Z,1.50
2022-09-23T11:17:21.003Z,1.52
2022-09-23T11:22:47.750Z,1.30
2022-09-23T11:25:26.627Z,1.50
2022-09-23T11:28:12.116Z,1.30
2022-09-23T11:30:50.023Z,1.40
2022-09-23T11:33:33.884Z,1.63
2022-09-23T11:36:04.751Z,1.48
2022-09-23T11:38:38.749Z,1.60
2022-09-23T11:41:14.883Z,1.45
2022-09-23T11:43:43.804Z,1.38
2022-09-23T11:46:19.935Z,1.35
2022-09-23T11:48:55.748Z,1.23
2022-09-23T11:51:26.960Z,1.42
2022-09-23T11:54:00.569Z,1.40
2022-09-23T11:56:36.177Z,1.63
2022-09-23T11:59:13.934Z,1.40
2022-09-23T12:01:46.953Z,1.42
2022-09-23T12:04:23.392Z,1.33
2022-09-23T12:06:57.004Z,1.60
2022-09-23T12:09:54.144Z,1.40
2022-09-23T12:12:27.320Z,1.40
2022-09-23T12:14:59.755Z,1.42
2022-09-23T12:17:44.731Z,1.33
2022-09-23T12:20:35.357Z,1.52
2022-09-23T12:23:19.141Z,1.50
2022-09-23T12:25:51.994Z,1.60
2022-09-23T12:28:22.911Z,1.42
2022-09-23T12:30:53.274Z,1.40
2022-09-23T12:33:23.554Z,1.30
2022-09-23T12:35:52.716Z,1.30
2022-09-23T12:38:23.850Z,1.30
2022-09-23T12:40:53.997Z,1.20
2022-09-23T12:43:29.551Z,1.73
2022-09-23T12:46:18.371Z,1.50
2022-09-23T12:48:48.072Z,1.40
2022-09-23T12:51:20.321Z,1.48
2022-09-23T12:53:56.868Z,1.70
2022-09-23T12:56:28.541Z,1.40
2022-09-23T12:58:59.914Z,1.42
2022-09-23T13:01:28.260Z,1.50
2022-09-23T13:03:57.244Z,1.33
2022-09-23T13:06:35.828Z,1.50
2022-09-23T13:09:03.043Z,1.48
2022-09-23T13:11:32.853Z,1.60
2022-09-23T13:14:04.964Z,1.40
2022-09-23T13:16:34.744Z,1.35
2022-09-23T13:19:03.141Z,1.50
2022-09-23T13:22:09.732Z,1.42
2022-09-23T13:24:40.689Z,1.60
2022-09-23T13:27:17.611Z,1.60
2022-09-23T13:29:49.595Z,1.52
2022-09-23T13:34:54.823Z,1.50
2022-09-23T13:37:24.573Z,1.23
2022-09-23T13:39:51.754Z,1.20
2022-09-23T13:42:25.904Z,1.42
2022-09-23T13:47:21.353Z,1.30
2022-09-23T13:49:48.647Z,1.20
2022-09-23T13:52:24.570Z,1.30
2022-09-23T13:54:51.709Z,1.30
2022-09-23T13:57:27.836Z,1.20
2022-09-23T14:00:00.043Z,1.25
2022-09-23T14:02:27.463Z,1.30
2022-09-23T14:04:56.692Z,1.40
2022-09-23T14:07:24.941Z,1.38
2022-09-23T14:09:55.754Z,1.30
2022-09-23T14:12:23.327Z,1.48
2022-09-23T14:14:52.819Z,1.30
2022-09-23T14:17:21.651Z,1.30
2022-09-23T14:19:49.873Z,1.30
2022-09-23T14:22:24.790Z,1.20
2022-09-23T14:24:53.665Z,1.33
2022-09-23T14:27:28.231Z,1.17
2022-09-23T14:29:57.789Z,1.20
2022-09-23T14:32:26.214Z,1.20
2022-09-23T14:35:06.272Z,1.30
2022-09-23T14:37:41.473Z,1.40
2022-09-23T14:40:13.351Z,1.15
2022-09-23T14:42:43.132Z,1.40
2022-09-23T14:45:16.010Z,1.10
2022-09-23T14:47:46.672Z,1.30
2022-09-23T14:50:19.835Z,1.48
2022-09-23T14:52:49.078Z,1.42
2022-09-23T14:55:16.849Z,1.40
2022-09-23T14:57:45.333Z,1.15
2022-09-23T15:00:18.326Z,1.20
2022-09-23T15:02:57.327Z,1.30
2022-09-23T15:05:37.517Z,1.33
2022-09-23T15:08:05.513Z,1.35
2022-09-23T15:10:36.192Z,1.40
2022-09-23T15:13:06.995Z,1.35
2022-09-23T15:15:36.173Z,1.50
2022-09-23T15:18:06.279Z,1.20
2022-09-23T15:20:34.695Z,1.20
2022-09-23T15:23:01.831Z,1.30
2022-09-23T15:25:32.868Z,1.50
2022-09-23T15:28:02.879Z,1.55
2022-09-23T15:30:30.755Z,1.50
2022-09-23T15:32:59.221Z,1.60
2022-09-23T15:35:27.060Z,1.92
2022-09-23T15:37:56.738Z,2.22
2022-09-23T15:40:26.334Z,2.33
2022-09-23T15:42:56.043Z,2.10
2022-09-23T15:45:36.066Z,1.65
2022-09-23T15:48:07.936Z,1.70
2022-09-23T15:50:36.197Z,2.20
2022-09-23T15:53:03.768Z,1.50
2022-09-23T15:55:30.858Z,1.40
2022-09-23T15:57:57.932Z,2.13
2022-09-23T16:00:25.183Z,1.40
2022-09-23T16:02:52.514Z,1.80
2022-09-23T16:05:25.945Z,1.20
2022-09-23T16:07:53.049Z,1.60
2022-09-23T16:10:21.884Z,1.65
2022-09-23T16:12:49.488Z,1.60
2022-09-23T16:15:19.113Z,1.77
2022-09-23T16:17:46.410Z,1.67
2022-09-23T16:20:14.656Z,1.95
2022-09-23T16:22:43.212Z,2.20
2022-09-23T16:25:12.024Z,1.70
2022-09-23T16:27:39.134Z,2.00
2022-09-23T16:30:07.956Z,2.08
2022-09-23T16:32:35.051Z,1.83
2022-09-23T16:35:02.171Z,1.77
2022-09-23T16:37:29.275Z,1.75
2022-09-23T16:39:57.708Z,1.85
2022-09-23T16:42:24.876Z,1.77
2022-09-23T16:44:51.993Z,1.70
2022-09-23T16:47:19.066Z,1.73
2022-09-23T16:49:46.261Z,1.90
2022-09-23T16:52:13.391Z,1.80
2022-09-23T16:54:40.751Z,1.73
2022-09-23T16:57:09.380Z,1.73
2022-09-23T16:59:36.474Z,1.77
2022-09-23T17:02:03.631Z,2.20
2022-09-23T17:04:30.797Z,2.08
2022-09-23T17:06:58.413Z,1.88
2022-09-23T17:09:28.323Z,2.03
2022-09-23T17:12:01.580Z,1.92
2022-09-23T17:14:30.980Z,2.20
2022-09-23T17:16:58.441Z,1.92
2022-09-23T17:19:25.536Z,1.88
2022-09-23T17:21:53.597Z,1.90
2022-09-23T17:24:20.953Z,2.17
2022-09-23T17:26:52.135Z,2.00
2022-09-23T17:29:20.326Z,1.90
2022-09-23T17:31:48.824Z,1.85
2022-09-23T17:34:16.148Z,1.88
2022-09-23T17:36:43.268Z,2.08
2022-09-23T17:39:10.630Z,2.20
2022-09-23T17:41:37.723Z,2.10
2022-09-23T17:44:05.082Z,2.30
2022-09-23T17:46:32.196Z,2.38
2022-09-23T17:49:00.625Z,2.33
2022-09-23T17:51:27.747Z,2.28
2022-09-23T17:53:54.966Z,2.22
2022-09-23T17:56:24.045Z,2.35
2022-09-23T17:58:52.747Z,2.60
2022-09-23T18:01:21.837Z,2.40
2022-09-23T18:03:53.736Z,2.47
2022-09-23T18:06:24.056Z,2.40
2022-09-23T18:08:52.071Z,2.30
2022-09-23T18:11:21.289Z,2.50
2022-09-23T18:13:50.291Z,2.30
2022-09-23T18:16:17.956Z,2.60
2022-09-23T18:18:49.906Z,2.58
2022-09-23T18:21:17.025Z,2.53
2022-09-23T18:23:45.485Z,2.70
2022-09-23T18:26:13.828Z,2.50
2022-09-23T18:28:41.031Z,2.80
2022-09-23T18:31:08.441Z,2.60
2022-09-23T18:33:35.869Z,2.75
2022-09-23T18:36:03.481Z,2.47
2022-09-23T18:38:30.586Z,2.40
2022-09-23T18:40:59.640Z,3.17
2022-09-23T18:43:34.730Z,2.50
2022-09-23T18:46:07.179Z,2.70
2022-09-23T18:48:34.902Z,2.78
2022-09-23T18:51:01.975Z,3.03
2022-09-23T18:53:29.075Z,3.10
2022-09-23T18:55:56.903Z,2.90
2022-09-23T18:58:25.380Z,2.95
2022-09-23T19:00:52.551Z,3.30
2022-09-23T19:03:19.873Z,3.13
2022-09-23T19:05:46.964Z,3.45
2022-09-23T19:08:14.037Z,3.20
2022-09-23T19:10:41.149Z,3.47
2022-09-23T19:13:08.260Z,3.15
2022-09-23T19:15:36.708Z,3.45
2022-09-23T19:18:04.103Z,3.20
2022-09-23T19:20:31.194Z,3.28
2022-09-23T19:22:58.263Z,3.05
2022-09-23T19:25:25.359Z,2.88
2022-09-23T19:27:52.435Z,3.30
2022-09-23T19:30:19.554Z,3.50
2022-09-23T19:32:47.994Z,3.58
2022-09-23T19:35:15.153Z,3.85
2022-09-23T19:37:42.226Z,3.58
2022-09-23T19:40:10.317Z,3.60
2022-09-23T19:42:37.428Z,4.10
2022-09-23T19:45:05.310Z,3.50
2022-09-23T19:47:32.424Z,4.22
2022-09-23T19:50:00.901Z,4.32
2022-09-23T19:52:27.999Z,4.18
2022-09-23T19:54:55.106Z,4.22
2022-09-23T19:57:22.208Z,4.10
2022-09-23T19:59:49.269Z,4.53
2022-09-23T20:02:16.678Z,4.18
2022-09-23T20:04:43.854Z,4.57
2022-09-23T20:07:12.296Z,4.03
2022-09-23T20:09:39.402Z,4.07
2022-09-23T20:12:06.502Z,3.72
2022-09-23T20:14:33.593Z,4.00
2022-09-23T20:17:00.700Z,3.83
2022-09-23T20:19:27.954Z,3.65
2022-09-23T20:21:55.024Z,4.00
2022-09-23T20:24:23.710Z,3.75
2022-09-23T20:26:50.800Z,3.83
2022-09-23T20:29:17.968Z,4.00
2022-09-23T20:31:45.126Z,3.85
2022-09-23T20:34:12.480Z,3.78
2022-09-23T20:36:40.292Z,4.05
2022-09-23T20:39:07.615Z,4.10
2022-09-23T20:41:36.900Z,3.97
2022-09-23T20:44:05.900Z,3.92
2022-09-23T20:46:33.663Z,4.32
2022-09-23T20:49:01.049Z,3.75
2022-09-23T20:51:28.153Z,3.67
2022-09-23T20:53:55.289Z,4.15
2022-09-23T20:56:23.278Z,3.58
2022-09-23T20:58:51.773Z,3.53
2022-09-23T21:01:19.124Z,3.67
2022-09-23T21:03:48.596Z,4.03
2022-09-23T21:06:17.044Z,3.92
2022-09-23T21:08:44.158Z,4.05
2022-09-23T21:11:12.915Z,4.10
2022-09-23T21:13:40.033Z,3.97
2022-09-23T21:16:10.901Z,3.70
2022-09-23T21:18:38.263Z,3.65
2022-09-23T21:21:06.348Z,3.70
2022-09-23T21:23:35.343Z,4.20
2022-09-23T21:26:03.240Z,3.60
2022-09-23T21:28:31.032Z,4.00
2022-09-23T21:30:59.167Z,3.90
2022-09-23T21:33:28.180Z,3.55
2022-09-23T21:35:56.320Z,3.47
2022-09-23T21:38:24.104Z,3.72
2022-09-23T21:40:58.393Z,3.70
2022-09-23T21:43:25.745Z,3.80
2022-09-23T21:45:56.548Z,4.18
2022-09-23T21:48:23.640Z,3.83
2022-09-23T21:50:56.670Z,3.58
2022-09-23T21:53:23.938Z,3.80
2022-09-23T21:55:51.259Z,3.58
2022-09-23T21:58:18.352Z,3.53
2022-09-23T22:00:45.506Z,3.42
2022-09-23T22:03:12.639Z,3.42
2022-09-23T22:05:39.830Z,3.78
2022-09-23T22:08:08.239Z,3.83
2022-09-23T22:10:35.889Z,3.70
2022-09-23T22:13:03.341Z,3.38
2022-09-23T22:15:30.792Z,3.53
2022-09-23T22:17:57.864Z,3.88
2022-09-23T22:20:24.950Z,3.70
2022-09-23T22:22:52.028Z,3.47
2022-09-23T22:25:20.501Z,3.72
2022-09-23T22:27:47.644Z,3.42
2022-09-23T22:30:14.897Z,3.65
2022-09-23T22:32:42.048Z,3.28
2022-09-23T22:35:10.676Z,3.58
2022-09-23T22:37:38.008Z,3.70
2022-09-23T22:40:06.738Z,3.78
2022-09-23T22:42:35.294Z,3.50
2022-09-23T22:45:02.595Z,3.38
2022-09-23T22:47:29.714Z,3.78
2022-09-23T22:49:56.808Z,3.65
2022-09-23T22:52:23.878Z,3.80
2022-09-23T22:54:51.438Z,3.75
2022-09-23T22:57:19.279Z,3.45
2022-09-23T22:59:47.748Z,3.15
2022-09-23T23:02:15.317Z,3.72
2022-09-23T23:04:42.792Z,3.60
2022-09-23T23:07:09.863Z,3.67
2022-09-23T23:09:36.956Z,4.00
2022-09-23T23:12:04.327Z,3.53
2022-09-23T23:14:31.433Z,3.55
2022-09-23T23:16:59.878Z,3.22
2022-09-23T23:19:27.054Z,3.35
2022-09-23T23:21:54.152Z,3.35
2022-09-23T23:24:22.680Z,3.20
2022-09-23T23:26:50.564Z,3.75
2022-09-23T23:29:19.418Z,3.63
2022-09-23T23:31:47.158Z,3.13
2022-09-23T23:34:17.638Z,3.30
2022-09-23T23:36:46.202Z,3.20
2022-09-23T23:39:14.321Z,3.13
2022-09-23T23:41:41.833Z,3.08
2022-09-23T23:44:09.057Z,3.28
2022-09-23T23:46:36.328Z,3.83
2022-09-23T23:49:04.127Z,3.50
2022-09-23T23:51:32.598Z,3.35
2022-09-23T23:54:00.038Z,3.28
2022-09-23T23:56:27.786Z,3.00
2022-09-23T23:58:55.683Z,2.97
